Terminal Aerodrome Forecast
Issued by NWS Topeka, KS

Home | Current Version | Previous Version | Text Only | Print | Product List | Glossary On
Versions: 1 2 3 4 5 6 7 8 9 10 11 12
000
FTUS43 KTOP 291100
TAFTOP
TAF
KTOP 291120Z 2912/3012 34003KT P6SM VCSH BKN080
     FM291500 01005KT P6SM SCT080
     FM301000 00000KT P6SM VCSH BKN070=

USA.gov is the U.S. government's official web portal to all federal, state and local government web resources and services.